Time;durP1;ratioP1;P1;durP2;ratioP2;P2;SDS_P1;SDS_P2;PMS_P1;PMS_P2;Temp;Humidity;BMP_temperature;BMP_pressure;BME280_temperature;BME280_humidity;BME280_pressure;Samples;Min_cycle;Max_cycle;Signal;HPM_P1;HPM_P2
2024/02/12 00:02:20;;;;;;;4.40;3.13;;;;;;;;;;775098;180;815470;-62
2024/02/12 00:04:46;;;;;;;4.27;3.00;;;;;;;;;;769225;180;921681;-65
2024/02/12 00:07:13;;;;;;;4.70;3.30;;;;;;;;;;767969;180;906429;-66
2024/02/12 00:09:37;;;;;;;5.50;3.22;;;;;;;;;;771272;180;920441;-65
2024/02/12 00:12:03;;;;;;;4.17;2.90;;;;;;;;;;766814;180;923928;-62
2024/02/12 00:14:29;;;;;;;5.77;3.60;;;;;;;;;;766453;179;918427;-61
2024/02/12 00:16:55;;;;;;;5.33;2.93;;;;;;;;;;767792;180;920867;-62
2024/02/12 00:19:22;;;;;;;5.00;3.37;;;;;;;;;;775453;180;816211;-62
2024/02/12 00:21:48;;;;;;;5.47;3.67;;;;;;;;;;770267;179;920036;-62
2024/02/12 00:24:15;;;;;;;5.90;3.50;;;;;;;;;;767720;180;920222;-63
2024/02/12 00:26:39;;;;;;;6.27;3.37;;;;;;;;;;772835;180;919912;-65
2024/02/12 00:29:05;;;;;;;4.03;3.07;;;;;;;;;;769975;180;817959;-61
2024/02/12 00:31:30;;;;;;;4.67;2.87;;;;;;;;;;767396;180;918925;-61
2024/02/12 00:33:56;;;;;;;4.35;2.85;;;;;;;;;;772432;180;955025;-62
2024/02/12 00:36:23;;;;;;;4.57;3.07;;;;;;;;;;768090;179;919364;-65
2024/02/12 00:38:48;;;;;;;5.13;3.43;;;;;;;;;;767208;180;919175;-65
2024/02/12 00:41:14;;;;;;;6.00;3.50;;;;;;;;;;769253;180;919491;-62
2024/02/12 00:43:42;;;;;;;5.50;3.40;;;;;;;;;;768386;181;917249;-63
2024/02/12 00:46:08;;;;;;;4.30;3.07;;;;;;;;;;771210;179;920329;-66
2024/02/12 00:48:33;;;;;;;6.33;3.70;;;;;;;;;;768938;180;860203;-65
2024/02/12 00:50:59;;;;;;;7.40;2.95;;;;;;;;;;772057;179;1038624;-64
2024/02/12 00:53:25;;;;;;;6.77;3.07;;;;;;;;;;766767;180;1021480;-64
2024/02/12 00:55:51;;;;;;;4.90;3.20;;;;;;;;;;769754;180;918777;-65
2024/02/12 00:58:16;;;;;;;5.07;3.33;;;;;;;;;;771770;180;919227;-67
2024/02/12 01:00:42;;;;;;;7.97;3.90;;;;;;;;;;767797;180;918754;-65
2024/02/12 01:03:08;;;;;;;5.43;3.83;;;;;;;;;;767036;180;921014;-63
2024/02/12 01:05:34;;;;;;;4.43;3.30;;;;;;;;;;768044;180;939690;-64
2024/02/12 01:08:00;;;;;;;5.20;3.50;;;;;;;;;;769455;180;919647;-65
2024/02/12 01:10:26;;;;;;;4.93;2.97;;;;;;;;;;764070;181;836507;-65
2024/02/12 01:12:51;;;;;;;5.67;3.43;;;;;;;;;;768671;180;818195;-65
2024/02/12 01:15:17;;;;;;;5.50;3.80;;;;;;;;;;775029;180;857323;-65
2024/02/12 01:17:43;;;;;;;5.40;3.70;;;;;;;;;;768707;180;922967;-65
2024/02/12 01:20:11;;;;;;;18.00;3.73;;;;;;;;;;766522;180;919228;-64
2024/02/12 01:22:35;;;;;;;6.30;3.90;;;;;;;;;;773549;180;924778;-63
2024/02/12 01:25:01;;;;;;;5.10;3.80;;;;;;;;;;766627;180;919122;-65
2024/02/12 01:27:27;;;;;;;4.73;3.23;;;;;;;;;;768037;180;918950;-66
2024/02/12 01:29:53;;;;;;;7.00;3.73;;;;;;;;;;772559;180;919638;-64
2024/02/12 01:32:19;;;;;;;6.50;3.73;;;;;;;;;;766991;180;919618;-64
2024/02/12 01:34:44;;;;;;;5.47;3.33;;;;;;;;;;767379;180;918956;-65
2024/02/12 01:37:11;;;;;;;5.30;3.20;;;;;;;;;;769618;180;919266;-63
2024/02/12 01:39:36;;;;;;;5.40;3.47;;;;;;;;;;772505;180;839261;-66
2024/02/12 01:42:08;;;;;;;5.23;4.10;;;;;;;;;;770262;180;814729;-65
2024/02/12 01:44:34;;;;;;;4.00;3.20;;;;;;;;;;767850;180;916587;-67
2024/02/12 01:46:59;;;;;;;7.10;4.67;;;;;;;;;;772629;180;917756;-65
2024/02/12 01:49:26;;;;;;;4.60;2.90;;;;;;;;;;766894;179;1020107;-67
2024/02/12 01:51:51;;;;;;;6.50;3.70;;;;;;;;;;767928;180;917602;-63
2024/02/12 01:54:17;;;;;;;4.60;3.53;;;;;;;;;;769055;179;943080;-65
2024/02/12 01:56:44;;;;;;;3.73;2.77;;;;;;;;;;765759;182;1022823;-63
2024/02/12 01:59:09;;;;;;;4.80;3.30;;;;;;;;;;767689;180;924696;-67
2024/02/12 02:01:36;;;;;;;6.37;4.12;;;;;;;;;;768713;180;921605;-63
2024/02/12 02:04:01;;;;;;;6.73;3.60;;;;;;;;;;778379;179;922455;-66
2024/02/12 02:06:26;;;;;;;6.70;4.07;;;;;;;;;;771569;180;916411;-66
2024/02/12 02:08:52;;;;;;;6.30;3.20;;;;;;;;;;770329;179;1020990;-65
2024/02/12 02:11:20;;;;;;;5.10;3.70;;;;;;;;;;774622;180;916035;-66
2024/02/12 02:13:44;;;;;;;4.53;3.20;;;;;;;;;;769565;180;822069;-64
2024/02/12 02:16:10;;;;;;;5.12;3.67;;;;;;;;;;767449;180;920061;-63
2024/02/12 02:18:37;;;;;;;4.65;3.12;;;;;;;;;;773466;180;995679;-66
2024/02/12 02:21:03;;;;;;;5.30;3.47;;;;;;;;;;770820;180;918095;-64
2024/02/12 02:23:28;;;;;;;4.63;3.30;;;;;;;;;;762446;181;919462;-66
2024/02/12 02:25:55;;;;;;;4.90;3.43;;;;;;;;;;764900;181;921390;-64
2024/02/12 02:28:20;;;;;;;5.17;3.40;;;;;;;;;;774355;180;899059;-64
2024/02/12 02:30:48;;;;;;;4.97;3.13;;;;;;;;;;768329;180;917182;-64
2024/02/12 02:33:12;;;;;;;6.47;4.50;;;;;;;;;;767701;180;919565;-64
2024/02/12 02:35:38;;;;;;;7.77;3.60;;;;;;;;;;773089;180;919393;-64
2024/02/12 02:38:04;;;;;;;6.43;3.80;;;;;;;;;;768209;180;929144;-66
2024/02/12 02:40:30;;;;;;;6.70;4.17;;;;;;;;;;769408;180;917160;-64
2024/02/12 02:42:56;;;;;;;5.90;3.50;;;;;;;;;;768197;180;918278;-68
2024/02/12 02:45:22;;;;;;;5.60;3.33;;;;;;;;;;769537;180;816424;-63
2024/02/12 02:47:49;;;;;;;7.23;3.70;;;;;;;;;;769170;180;917703;-66
2024/02/12 02:50:13;;;;;;;5.73;3.87;;;;;;;;;;767641;180;915679;-63
2024/02/12 02:52:39;;;;;;;4.80;3.57;;;;;;;;;;774376;180;918241;-67
2024/02/12 02:55:06;;;;;;;7.17;3.87;;;;;;;;;;770042;180;866852;-63
2024/02/12 02:57:32;;;;;;;5.07;3.30;;;;;;;;;;768334;180;916070;-63
2024/02/12 02:59:57;;;;;;;5.70;3.43;;;;;;;;;;772202;180;920549;-67
2024/02/12 03:02:23;;;;;;;6.93;3.83;;;;;;;;;;769644;180;816127;-66
2024/02/12 03:04:48;;;;;;;5.40;3.60;;;;;;;;;;771134;179;816452;-63
2024/02/12 03:07:15;;;;;;;8.37;4.20;;;;;;;;;;774355;180;918921;-66
2024/02/12 03:09:40;;;;;;;6.07;3.77;;;;;;;;;;769687;180;919786;-63
2024/02/12 03:12:06;;;;;;;4.93;3.47;;;;;;;;;;769535;180;874797;-64
2024/02/12 03:14:32;;;;;;;8.23;3.87;;;;;;;;;;772353;180;817998;-64
2024/02/12 03:16:58;;;;;;;6.68;3.90;;;;;;;;;;766519;183;919002;-64
2024/02/12 03:19:23;;;;;;;4.50;3.57;;;;;;;;;;769187;179;918074;-66
2024/02/12 03:21:49;;;;;;;10.03;4.20;;;;;;;;;;768300;180;918880;-63
2024/02/12 03:24:15;;;;;;;5.57;3.60;;;;;;;;;;776029;180;895904;-67
2024/02/12 03:26:41;;;;;;;6.67;4.20;;;;;;;;;;771338;180;918954;-66
2024/02/12 03:29:07;;;;;;;6.40;4.03;;;;;;;;;;767977;181;917504;-68
2024/02/12 03:31:33;;;;;;;6.20;4.37;;;;;;;;;;773325;180;916660;-63
2024/02/12 03:33:58;;;;;;;6.37;3.80;;;;;;;;;;768008;180;915925;-63
2024/02/12 03:36:25;;;;;;;4.40;3.13;;;;;;;;;;765953;180;918720;-64
2024/02/12 03:38:50;;;;;;;4.63;2.87;;;;;;;;;;776409;180;848628;-68
2024/02/12 03:41:16;;;;;;;6.50;3.60;;;;;;;;;;773839;179;919020;-63
2024/02/12 03:43:42;;;;;;;7.83;3.90;;;;;;;;;;770159;180;921213;-62
2024/02/12 03:46:08;;;;;;;5.47;3.73;;;;;;;;;;768201;180;919508;-66
2024/02/12 04:01:13;;;;;;;5.53;3.90;;;;;;;;;;773172;180;922850;-63
2024/02/12 04:03:38;;;;;;;6.40;3.97;;;;;;;;;;766441;180;912785;-64
2024/02/12 04:06:06;;;;;;;7.10;4.07;;;;;;;;;;766801;180;919173;-63
2024/02/12 04:08:29;;;;;;;6.32;3.75;;;;;;;;;;774375;180;915467;-64
2024/02/12 04:10:56;;;;;;;5.73;3.60;;;;;;;;;;768882;180;914978;-65
2024/02/12 04:13:22;;;;;;;5.85;4.00;;;;;;;;;;771362;180;906018;-64
2024/02/12 04:15:48;;;;;;;5.40;3.40;;;;;;;;;;773408;180;921257;-64
2024/02/12 04:18:13;;;;;;;8.20;3.80;;;;;;;;;;772113;179;917256;-68
2024/02/12 04:20:39;;;;;;;7.20;3.67;;;;;;;;;;772129;180;818935;-67
2024/02/12 04:23:06;;;;;;;6.80;4.40;;;;;;;;;;770463;180;918660;-68
2024/02/12 04:25:32;;;;;;;6.00;4.53;;;;;;;;;;774584;180;712813;-64
2024/02/12 04:28:00;;;;;;;8.43;4.20;;;;;;;;;;764446;181;917976;-70
2024/02/12 04:30:25;;;;;;;11.93;4.23;;;;;;;;;;763984;181;917519;-69
2024/02/12 04:32:48;;;;;;;4.90;3.20;;;;;;;;;;772707;180;900878;-64
2024/02/12 04:35:14;;;;;;;7.37;3.90;;;;;;;;;;769824;180;922650;-68
2024/02/12 04:37:39;;;;;;;5.63;4.30;;;;;;;;;;770025;180;917447;-64
2024/02/12 04:40:07;;;;;;;5.90;3.80;;;;;;;;;;775328;180;847633;-65
2024/02/12 04:42:32;;;;;;;6.40;3.53;;;;;;;;;;771029;180;921173;-64
2024/02/12 04:44:58;;;;;;;6.57;3.70;;;;;;;;;;768700;180;919928;-68
2024/02/12 04:47:24;;;;;;;6.53;4.17;;;;;;;;;;770557;180;819139;-67
2024/02/12 04:49:49;;;;;;;5.60;3.90;;;;;;;;;;773163;180;819338;-65
2024/02/12 04:52:16;;;;;;;7.43;4.03;;;;;;;;;;761614;181;919324;-64
2024/02/12 04:54:43;;;;;;;5.95;3.85;;;;;;;;;;763439;181;1017373;-69
2024/02/12 04:57:07;;;;;;;7.33;4.47;;;;;;;;;;770289;180;917339;-65
2024/02/12 04:59:33;;;;;;;5.93;3.77;;;;;;;;;;769672;180;907503;-64
2024/02/12 05:01:59;;;;;;;5.00;3.50;;;;;;;;;;771819;180;812666;-70
2024/02/12 05:04:24;;;;;;;7.90;4.63;;;;;;;;;;776487;180;636716;-65
2024/02/12 05:06:50;;;;;;;6.60;4.70;;;;;;;;;;769964;180;918821;-68
2024/02/12 05:09:16;;;;;;;6.67;4.20;;;;;;;;;;770574;180;919735;-65
2024/02/12 05:11:42;;;;;;;6.00;4.13;;;;;;;;;;774658;180;917167;-70
2024/02/12 05:14:08;;;;;;;7.43;4.73;;;;;;;;;;769473;180;816913;-68
2024/02/12 05:16:34;;;;;;;5.50;4.20;;;;;;;;;;769407;180;918667;-65
2024/02/12 05:24:04;;;;;;;8.40;4.43;;;;;;;;;;771465;180;918077;-65
2024/02/12 05:26:29;;;;;;;7.77;4.90;;;;;;;;;;770435;180;917586;-65
2024/02/12 05:28:55;;;;;;;9.10;5.67;;;;;;;;;;768989;178;914027;-68
2024/02/12 05:31:21;;;;;;;6.40;4.03;;;;;;;;;;776433;180;918091;-68
2024/02/12 05:33:48;;;;;;;5.97;4.20;;;;;;;;;;771952;180;914415;-68
2024/02/12 05:36:17;;;;;;;6.67;4.60;;;;;;;;;;768368;180;913425;-64
2024/02/12 05:38:40;;;;;;;7.90;4.53;;;;;;;;;;773550;180;822215;-63
2024/02/12 05:41:04;;;;;;;6.83;4.00;;;;;;;;;;768096;180;920145;-65
2024/02/12 05:43:30;;;;;;;9.80;5.50;;;;;;;;;;769858;180;919046;-68
2024/02/12 05:45:56;;;;;;;7.17;4.53;;;;;;;;;;776415;180;921794;-65
2024/02/12 05:48:22;;;;;;;7.30;4.87;;;;;;;;;;769744;180;918220;-65
2024/02/12 05:50:48;;;;;;;6.53;4.43;;;;;;;;;;769964;180;919354;-64
2024/02/12 05:53:14;;;;;;;6.67;4.27;;;;;;;;;;770041;180;931401;-68
2024/02/12 05:55:39;;;;;;;8.77;5.97;;;;;;;;;;768543;180;920043;-64
2024/02/12 05:58:05;;;;;;;9.53;4.73;;;;;;;;;;765079;180;922874;-64
2024/02/12 06:00:32;;;;;;;8.77;5.40;;;;;;;;;;768522;180;919781;-65
2024/02/12 06:02:57;;;;;;;8.10;5.37;;;;;;;;;;774941;180;829206;-69
2024/02/12 06:05:23;;;;;;;7.83;5.23;;;;;;;;;;768341;180;1012327;-68
2024/02/12 06:07:49;;;;;;;9.88;6.18;;;;;;;;;;769667;180;917214;-64
2024/02/12 06:10:15;;;;;;;6.80;4.27;;;;;;;;;;773799;180;920313;-68
2024/02/12 06:12:41;;;;;;;5.83;4.37;;;;;;;;;;769078;180;893534;-64
2024/02/12 06:15:07;;;;;;;7.00;4.20;;;;;;;;;;770648;180;819715;-68
2024/02/12 06:17:33;;;;;;;6.77;5.07;;;;;;;;;;771430;180;908893;-70
2024/02/12 06:19:59;;;;;;;8.63;4.60;;;;;;;;;;769231;180;716089;-68
2024/02/12 06:22:25;;;;;;;6.73;4.80;;;;;;;;;;772958;179;773656;-64
2024/02/12 06:24:51;;;;;;;7.00;4.63;;;;;;;;;;773111;179;918908;-68
2024/02/12 06:27:16;;;;;;;9.77;5.50;;;;;;;;;;764301;182;714102;-65
2024/02/12 06:29:42;;;;;;;6.10;4.70;;;;;;;;;;757553;182;816591;-63
2024/02/12 06:32:13;;;;;;;6.60;4.55;;;;;;;;;;774773;179;915758;-65
2024/02/12 06:34:34;;;;;;;6.50;4.67;;;;;;;;;;771968;180;1020996;-69
2024/02/12 06:37:00;;;;;;;7.33;4.80;;;;;;;;;;769141;180;914396;-68
2024/02/12 06:39:28;;;;;;;5.60;3.90;;;;;;;;;;766338;180;1017658;-64
2024/02/12 06:41:51;;;;;;;9.63;4.27;;;;;;;;;;776603;179;1022302;-65
2024/02/12 06:44:19;;;;;;;6.20;4.25;;;;;;;;;;768411;179;923911;-68
2024/02/12 06:46:43;;;;;;;7.30;4.93;;;;;;;;;;770674;180;884388;-65
2024/02/12 06:49:09;;;;;;;6.50;4.83;;;;;;;;;;773560;180;818889;-67
2024/02/12 06:51:35;;;;;;;6.53;4.60;;;;;;;;;;780440;178;913758;-64
2024/02/12 06:54:01;;;;;;;6.50;4.83;;;;;;;;;;765628;180;915336;-65
2024/02/12 06:56:27;;;;;;;6.37;5.10;;;;;;;;;;769019;180;886045;-68
2024/02/12 06:58:52;;;;;;;8.67;5.00;;;;;;;;;;775154;180;701198;-64
2024/02/12 07:01:18;;;;;;;10.55;4.05;;;;;;;;;;768947;180;828320;-68
2024/02/12 07:03:46;;;;;;;6.93;4.67;;;;;;;;;;769918;180;928399;-65
2024/02/12 07:06:10;;;;;;;10.03;4.63;;;;;;;;;;773496;180;922295;-64
2024/02/12 07:08:37;;;;;;;6.80;4.40;;;;;;;;;;774252;180;903170;-65
2024/02/12 07:11:02;;;;;;;7.50;5.33;;;;;;;;;;777327;179;622092;-65
2024/02/12 07:13:27;;;;;;;8.80;5.03;;;;;;;;;;770794;180;976433;-64
2024/02/12 07:15:53;;;;;;;5.63;3.90;;;;;;;;;;768181;180;910445;-68
2024/02/12 07:18:19;;;;;;;6.07;4.50;;;;;;;;;;772589;179;894995;-65
2024/02/12 07:20:45;;;;;;;7.37;4.53;;;;;;;;;;769717;181;817247;-68
2024/02/12 07:23:11;;;;;;;7.23;4.47;;;;;;;;;;773635;180;918078;-65
2024/02/12 07:25:37;;;;;;;7.47;4.67;;;;;;;;;;771249;180;815890;-65
2024/02/12 07:28:03;;;;;;;7.13;4.30;;;;;;;;;;771295;180;917981;-64
2024/02/12 07:30:30;;;;;;;5.60;4.10;;;;;;;;;;770184;180;918018;-65
2024/02/12 07:32:55;;;;;;;14.68;5.22;;;;;;;;;;767925;180;921585;-64
2024/02/12 07:35:20;;;;;;;4.67;3.27;;;;;;;;;;766988;180;918570;-69
2024/02/12 07:37:49;;;;;;;7.50;4.00;;;;;;;;;;774354;180;820949;-65
2024/02/12 07:40:12;;;;;;;6.27;4.47;;;;;;;;;;769285;180;917362;-64
2024/02/12 07:42:38;;;;;;;5.03;3.77;;;;;;;;;;767231;180;1021584;-64
2024/02/12 07:45:07;;;;;;;5.13;4.17;;;;;;;;;;768887;180;920447;-65
2024/02/12 07:47:31;;;;;;;8.00;3.97;;;;;;;;;;776669;178;1022513;-68
2024/02/12 07:49:56;;;;;;;4.83;3.63;;;;;;;;;;763714;181;917931;-65
2024/02/12 07:52:23;;;;;;;9.40;5.20;;;;;;;;;;771986;179;918848;-68
2024/02/12 07:54:48;;;;;;;5.87;3.47;;;;;;;;;;776182;179;917124;-68
2024/02/12 07:57:14;;;;;;;7.40;4.40;;;;;;;;;;769557;180;936213;-68
2024/02/12 07:59:40;;;;;;;7.43;3.90;;;;;;;;;;769932;180;918444;-68
2024/02/12 08:02:06;;;;;;;8.40;4.50;;;;;;;;;;775035;180;918394;-68
2024/02/12 08:04:31;;;;;;;7.57;3.60;;;;;;;;;;770444;180;918636;-69
2024/02/12 08:06:57;;;;;;;4.80;3.30;;;;;;;;;;771809;180;918896;-64
2024/02/12 08:09:23;;;;;;;7.13;4.53;;;;;;;;;;771597;180;918588;-64
2024/02/12 08:11:50;;;;;;;5.80;3.67;;;;;;;;;;758113;182;629296;-64
2024/02/12 08:14:16;;;;;;;7.37;3.70;;;;;;;;;;767888;179;919101;-63
2024/02/12 08:16:44;;;;;;;5.33;3.77;;;;;;;;;;768938;180;918728;-68
2024/02/12 08:19:10;;;;;;;6.20;3.30;;;;;;;;;;777047;180;652301;-68
2024/02/12 08:21:36;;;;;;;8.07;4.17;;;;;;;;;;768124;180;920744;-64
2024/02/12 08:24:03;;;;;;;6.80;3.30;;;;;;;;;;769445;180;921116;-70
2024/02/12 08:26:28;;;;;;;5.77;2.90;;;;;;;;;;777818;180;616777;-68
2024/02/12 08:28:54;;;;;;;6.20;3.27;;;;;;;;;;765679;180;1013032;-68
2024/02/12 08:31:20;;;;;;;7.77;4.13;;;;;;;;;;765530;180;932009;-64
2024/02/12 08:33:47;;;;;;;5.83;3.40;;;;;;;;;;767588;180;919841;-64
2024/02/12 08:36:13;;;;;;;5.73;2.80;;;;;;;;;;767699;182;898654;-64
2024/02/12 08:38:38;;;;;;;8.57;3.73;;;;;;;;;;764917;182;828059;-69
2024/02/12 08:41:03;;;;;;;5.07;3.10;;;;;;;;;;765163;181;911131;-69
2024/02/12 08:43:30;;;;;;;5.20;3.53;;;;;;;;;;778715;180;626740;-68
2024/02/12 08:45:55;;;;;;;6.60;4.23;;;;;;;;;;771501;180;911982;-64
2024/02/12 08:48:21;;;;;;;5.30;3.17;;;;;;;;;;765093;181;921723;-64
2024/02/12 08:50:49;;;;;;;5.17;3.40;;;;;;;;;;773381;180;924150;-64
2024/02/12 08:53:14;;;;;;;6.27;3.17;;;;;;;;;;768822;180;919585;-69
2024/02/12 08:55:38;;;;;;;3.67;2.40;;;;;;;;;;767619;180;822979;-63
2024/02/12 08:58:05;;;;;;;4.55;2.62;;;;;;;;;;773003;180;867401;-69
2024/02/12 09:00:30;;;;;;;5.00;4.07;;;;;;;;;;770982;180;925916;-68
2024/02/12 09:02:56;;;;;;;7.83;3.30;;;;;;;;;;772834;180;916212;-63
2024/02/12 09:05:22;;;;;;;8.90;3.70;;;;;;;;;;769968;179;919329;-68
2024/02/12 09:07:48;;;;;;;6.00;3.97;;;;;;;;;;774124;180;911663;-68
2024/02/12 09:10:13;;;;;;;4.62;3.45;;;;;;;;;;770658;180;917486;-63
2024/02/12 09:12:39;;;;;;;5.43;3.70;;;;;;;;;;771343;179;919494;-64
2024/02/12 09:15:07;;;;;;;5.00;3.20;;;;;;;;;;774417;180;623970;-64
2024/02/12 09:17:32;;;;;;;7.33;3.97;;;;;;;;;;769719;180;921001;-63
2024/02/12 09:19:58;;;;;;;9.00;4.07;;;;;;;;;;768699;180;831612;-63
2024/02/12 09:22:23;;;;;;;5.20;3.67;;;;;;;;;;776836;180;816536;-64
2024/02/12 09:24:49;;;;;;;5.67;3.10;;;;;;;;;;773148;180;921337;-69
2024/02/12 09:27:15;;;;;;;6.12;3.65;;;;;;;;;;770515;179;919887;-64
2024/02/12 09:29:41;;;;;;;5.43;3.83;;;;;;;;;;767177;180;915377;-68
2024/02/12 09:32:08;;;;;;;6.43;3.37;;;;;;;;;;772363;180;910403;-63
2024/02/12 09:34:33;;;;;;;7.67;3.70;;;;;;;;;;772041;179;821079;-69
2024/02/12 09:36:58;;;;;;;6.93;3.53;;;;;;;;;;770934;179;919376;-63
2024/02/12 09:39:24;;;;;;;5.43;2.77;;;;;;;;;;774750;180;919376;-69
2024/02/12 09:41:50;;;;;;;6.33;2.93;;;;;;;;;;770224;179;818582;-68
2024/02/12 09:44:16;;;;;;;4.60;3.00;;;;;;;;;;768260;181;918794;-69
2024/02/12 09:46:42;;;;;;;5.40;3.10;;;;;;;;;;774412;180;808852;-69
2024/02/12 09:49:08;;;;;;;6.23;3.60;;;;;;;;;;770431;180;807349;-69
2024/02/12 09:51:34;;;;;;;8.35;3.80;;;;;;;;;;770402;180;816022;-65
2024/02/12 09:54:01;;;;;;;3.87;2.87;;;;;;;;;;768936;180;868583;-68
2024/02/12 09:56:26;;;;;;;6.07;3.20;;;;;;;;;;766021;180;920360;-64
2024/02/12 09:58:51;;;;;;;5.40;3.10;;;;;;;;;;769443;179;915699;-64
2024/02/12 10:01:17;;;;;;;7.10;3.87;;;;;;;;;;766113;180;920346;-68
2024/02/12 10:03:43;;;;;;;5.17;3.33;;;;;;;;;;773488;180;814672;-70
2024/02/12 10:06:09;;;;;;;5.20;3.20;;;;;;;;;;770379;180;914285;-69
2024/02/12 10:08:35;;;;;;;5.32;3.20;;;;;;;;;;770041;180;913345;-68
2024/02/12 10:11:02;;;;;;;4.83;2.50;;;;;;;;;;772186;180;922820;-64
2024/02/12 10:13:26;;;;;;;6.10;3.07;;;;;;;;;;766822;180;918850;-68
2024/02/12 10:15:53;;;;;;;7.47;3.70;;;;;;;;;;772160;179;724034;-64
2024/02/12 10:18:19;;;;;;;4.77;3.17;;;;;;;;;;771946;179;1021899;-64
2024/02/12 10:20:44;;;;;;;4.20;3.10;;;;;;;;;;769809;180;900357;-64
2024/02/12 10:23:10;;;;;;;4.37;2.77;;;;;;;;;;770896;180;921096;-64
2024/02/12 10:25:39;;;;;;;11.07;4.20;;;;;;;;;;770452;180;861819;-68
2024/02/12 10:28:04;;;;;;;6.10;2.83;;;;;;;;;;773920;180;892211;-68
2024/02/12 10:30:30;;;;;;;4.33;2.60;;;;;;;;;;770191;180;914138;-68
2024/02/12 10:32:57;;;;;;;8.05;2.87;;;;;;;;;;769423;180;914480;-70
2024/02/12 10:35:23;;;;;;;6.20;3.80;;;;;;;;;;773899;180;911459;-64
2024/02/12 10:37:48;;;;;;;5.20;3.57;;;;;;;;;;768197;180;915515;-69
2024/02/12 10:40:14;;;;;;;5.27;3.10;;;;;;;;;;767023;180;923178;-64
2024/02/12 10:42:41;;;;;;;4.40;2.50;;;;;;;;;;773177;180;910526;-64
2024/02/12 10:45:06;;;;;;;4.43;2.80;;;;;;;;;;768140;179;901715;-63
2024/02/12 10:47:35;;;;;;;7.30;2.93;;;;;;;;;;768442;180;907123;-69
2024/02/12 10:49:59;;;;;;;10.60;3.67;;;;;;;;;;770353;180;814684;-64
2024/02/12 10:52:25;;;;;;;2.93;2.13;;;;;;;;;;771319;180;918967;-69
2024/02/12 10:54:51;;;;;;;5.20;3.23;;;;;;;;;;766973;180;915375;-68
2024/02/12 10:57:17;;;;;;;5.45;2.55;;;;;;;;;;768509;180;914532;-64
2024/02/12 10:59:43;;;;;;;4.90;3.23;;;;;;;;;;773041;180;917159;-69
2024/02/12 11:02:09;;;;;;;5.67;3.70;;;;;;;;;;774134;180;919234;-69
2024/02/12 11:04:34;;;;;;;4.53;3.13;;;;;;;;;;763669;180;921903;-69
2024/02/12 11:07:05;;;;;;;4.70;2.40;;;;;;;;;;770639;180;920521;-69
2024/02/12 11:09:32;;;;;;;4.27;2.70;;;;;;;;;;772936;180;921859;-64
2024/02/12 11:11:57;;;;;;;6.33;3.30;;;;;;;;;;766914;180;912594;-64
2024/02/12 11:14:23;;;;;;;4.20;3.07;;;;;;;;;;766791;180;923864;-64
2024/02/12 11:16:49;;;;;;;4.93;2.77;;;;;;;;;;773283;180;868952;-66
2024/02/12 11:19:15;;;;;;;4.13;2.67;;;;;;;;;;770241;180;919295;-68
2024/02/12 11:21:40;;;;;;;5.80;2.90;;;;;;;;;;767941;180;922445;-70
2024/02/12 11:24:07;;;;;;;4.23;2.60;;;;;;;;;;772723;180;886409;-68
2024/02/12 11:26:32;;;;;;;5.27;2.70;;;;;;;;;;772147;179;828970;-68
2024/02/12 11:28:58;;;;;;;5.77;2.13;;;;;;;;;;771881;180;917950;-64
2024/02/12 11:31:24;;;;;;;4.70;3.03;;;;;;;;;;768729;180;941157;-64
2024/02/12 11:33:49;;;;;;;3.63;2.30;;;;;;;;;;773464;180;918292;-64
2024/02/12 11:36:17;;;;;;;5.00;3.00;;;;;;;;;;761973;181;943067;-64
2024/02/12 11:38:48;;;;;;;5.20;2.93;;;;;;;;;;767060;180;884242;-64
2024/02/12 11:41:15;;;;;;;4.00;2.40;;;;;;;;;;773004;180;921754;-68
2024/02/12 11:43:40;;;;;;;5.83;2.90;;;;;;;;;;770448;180;919261;-69
2024/02/12 11:46:06;;;;;;;3.37;2.30;;;;;;;;;;769512;180;920865;-64
2024/02/12 11:48:31;;;;;;;3.17;1.90;;;;;;;;;;770620;180;823968;-63
2024/02/12 11:50:57;;;;;;;6.47;2.42;;;;;;;;;;767482;180;918679;-69
2024/02/12 11:53:25;;;;;;;3.80;2.60;;;;;;;;;;764031;181;919527;-68
2024/02/12 11:55:49;;;;;;;5.27;2.10;;;;;;;;;;769182;180;919273;-69
2024/02/12 11:58:15;;;;;;;3.80;2.10;;;;;;;;;;774163;180;987312;-64
2024/02/12 12:00:41;;;;;;;3.80;2.60;;;;;;;;;;766888;180;926901;-63
2024/02/12 12:03:07;;;;;;;3.78;2.30;;;;;;;;;;769241;179;898078;-63
2024/02/12 12:05:32;;;;;;;7.10;4.30;;;;;;;;;;775118;180;780848;-64
2024/02/12 12:07:58;;;;;;;3.40;1.93;;;;;;;;;;766705;180;914229;-64
2024/02/12 12:10:25;;;;;;;4.67;2.33;;;;;;;;;;769385;180;919560;-68
2024/02/12 12:12:51;;;;;;;5.18;2.50;;;;;;;;;;771440;180;917956;-64
2024/02/12 12:15:17;;;;;;;4.00;1.80;;;;;;;;;;767483;182;914182;-68
2024/02/12 12:17:42;;;;;;;13.53;3.27;;;;;;;;;;769768;180;912760;-64
2024/02/12 12:20:10;;;;;;;3.73;2.30;;;;;;;;;;766699;180;912580;-63
2024/02/12 12:22:37;;;;;;;6.00;2.50;;;;;;;;;;775053;180;805315;-64
2024/02/12 12:25:04;;;;;;;3.23;2.07;;;;;;;;;;766857;180;919818;-68
2024/02/12 12:27:30;;;;;;;3.43;2.17;;;;;;;;;;769166;180;818867;-67
2024/02/12 12:29:57;;;;;;;6.37;2.67;;;;;;;;;;772604;180;914860;-68
2024/02/12 12:32:21;;;;;;;3.60;2.33;;;;;;;;;;770171;180;813969;-68
2024/02/12 12:34:47;;;;;;;4.47;2.27;;;;;;;;;;767916;180;914549;-64
2024/02/12 12:37:13;;;;;;;3.50;2.27;;;;;;;;;;768606;180;919749;-67
2024/02/12 12:39:39;;;;;;;7.77;2.33;;;;;;;;;;770624;179;919515;-64
2024/02/12 12:42:07;;;;;;;3.60;2.03;;;;;;;;;;771197;179;940286;-63
2024/02/12 12:44:34;;;;;;;4.27;2.27;;;;;;;;;;770481;180;817058;-64
2024/02/12 12:46:57;;;;;;;4.13;1.93;;;;;;;;;;775953;180;918271;-67
2024/02/12 12:49:23;;;;;;;5.17;3.60;;;;;;;;;;770212;179;919261;-64
2024/02/12 12:51:49;;;;;;;6.12;3.55;;;;;;;;;;772438;180;919031;-67
2024/02/12 12:54:15;;;;;;;5.17;2.00;;;;;;;;;;783491;178;919587;-68
2024/02/12 12:56:41;;;;;;;3.43;1.77;;;;;;;;;;778714;179;931596;-63
2024/02/12 12:59:06;;;;;;;4.87;2.20;;;;;;;;;;763480;180;917369;-67
2024/02/12 13:01:33;;;;;;;3.00;1.70;;;;;;;;;;769060;180;906818;-68
2024/02/12 13:04:00;;;;;;;3.17;2.20;;;;;;;;;;774354;180;861767;-68
2024/02/12 13:06:24;;;;;;;3.23;2.23;;;;;;;;;;765412;180;919697;-63
2024/02/12 13:08:50;;;;;;;4.70;1.50;;;;;;;;;;765829;180;919376;-63
2024/02/12 13:11:16;;;;;;;9.73;4.23;;;;;;;;;;773500;180;921411;-64
2024/02/12 13:13:42;;;;;;;6.97;3.50;;;;;;;;;;766509;180;920655;-68
2024/02/12 13:16:09;;;;;;;4.53;1.80;;;;;;;;;;770930;180;818243;-68
2024/02/12 13:18:33;;;;;;;2.90;1.60;;;;;;;;;;770935;180;930226;-64
2024/02/12 13:20:59;;;;;;;7.00;1.97;;;;;;;;;;766416;180;817066;-69
2024/02/12 13:23:25;;;;;;;3.57;1.83;;;;;;;;;;766135;180;918742;-64
2024/02/12 13:25:51;;;;;;;3.33;2.63;;;;;;;;;;771721;180;895903;-67
2024/02/12 13:28:18;;;;;;;3.00;1.50;;;;;;;;;;771514;180;907333;-68
2024/02/12 13:30:46;;;;;;;4.53;1.50;;;;;;;;;;769321;180;917306;-64
2024/02/12 13:33:09;;;;;;;4.10;2.57;;;;;;;;;;764369;179;915861;-64
2024/02/12 13:35:37;;;;;;;3.90;1.40;;;;;;;;;;767828;181;921343;-68
2024/02/12 13:38:03;;;;;;;3.30;1.83;;;;;;;;;;764355;180;923936;-64
2024/02/12 13:40:30;;;;;;;3.47;1.70;;;;;;;;;;767214;180;922010;-64
2024/02/12 13:42:55;;;;;;;3.03;1.47;;;;;;;;;;772993;180;920169;-64
2024/02/12 13:45:21;;;;;;;2.90;1.80;;;;;;;;;;771471;180;798195;-64
2024/02/12 13:47:47;;;;;;;2.30;1.30;;;;;;;;;;771828;180;918098;-70
2024/02/12 13:50:13;;;;;;;3.90;1.40;;;;;;;;;;775094;178;922229;-68
2024/02/12 13:52:39;;;;;;;2.67;1.50;;;;;;;;;;769375;180;920451;-64
2024/02/12 13:55:10;;;;;;;3.97;2.00;;;;;;;;;;769557;180;917482;-64
2024/02/12 13:57:31;;;;;;;3.20;1.80;;;;;;;;;;769120;180;911265;-67
2024/02/12 13:59:58;;;;;;;4.03;2.20;;;;;;;;;;774684;180;918362;-68
2024/02/12 14:02:22;;;;;;;3.63;1.70;;;;;;;;;;770426;179;919111;-69
2024/02/12 14:04:48;;;;;;;3.65;1.85;;;;;;;;;;767498;180;918412;-68
2024/02/12 14:07:14;;;;;;;2.63;1.30;;;;;;;;;;772839;180;917954;-69
2024/02/12 14:09:40;;;;;;;4.43;1.60;;;;;;;;;;773142;180;633490;-68
2024/02/12 14:12:06;;;;;;;4.83;2.10;;;;;;;;;;771035;180;801611;-68
2024/02/12 14:14:32;;;;;;;5.07;3.03;;;;;;;;;;773799;180;845662;-68
2024/02/12 14:16:58;;;;;;;4.47;1.90;;;;;;;;;;770478;180;923350;-64
2024/02/12 14:19:24;;;;;;;5.63;2.37;;;;;;;;;;771682;180;867524;-68
2024/02/12 14:21:50;;;;;;;4.33;2.30;;;;;;;;;;771338;180;919009;-65
2024/02/12 14:24:18;;;;;;;6.50;2.60;;;;;;;;;;777183;177;819853;-68
2024/02/12 14:26:45;;;;;;;4.27;1.70;;;;;;;;;;763520;180;920760;-63
2024/02/12 14:29:10;;;;;;;4.23;1.80;;;;;;;;;;770668;180;812034;-68
2024/02/12 14:31:35;;;;;;;3.77;1.77;;;;;;;;;;776709;180;629087;-70
2024/02/12 14:34:01;;;;;;;5.37;1.83;;;;;;;;;;772087;177;632986;-64
2024/02/12 14:36:31;;;;;;;3.72;1.80;;;;;;;;;;770051;180;919686;-68
2024/02/12 14:38:52;;;;;;;5.03;1.60;;;;;;;;;;778137;180;705552;-64